Tiempo atmosférico en la estación meteorológica de Quintanar De La Orden, Toledo (691 m.)



Fecha
DESCASC
Temp. máxima en grados centígrados (hora)
DESCASC
Temp. mínima en grados centígrados (hora)
DESCASC
Temp. media en grados centígrados
DESCASC
Racha de viento máxima en m/sg (hora)
DESCASC
Velocidad máxima media en intervalos de 10 minutos(hora)
DESCASC
Precipitaciones diarias en mm
DESCASC
Precipitaciones de 00:00 a 06:00 en mm
DESCASC
Precipitaciones de 06:00 a 12:00 en mm
DESCASC
Precipitaciones de 12:00 a 18:00 en mm
DESCASC
Precipitaciones de 18:00 a 24:00 en mm
DESCASC
26-03-2020 15.7 (16:20) 2 (07:10) 8.8 8.33 (15:00) 4.17 (17:20) 0.1 0 0.1 0 0
25-03-2020 15.7 (15:40) 4 (07:40) 9.8 9.72 (21:20) 2.78 (22:20) 2.3 0 0 0 2.3
24-03-2020 15.2 (14:20) 7.8 (23:30) 11.5 11.67 (13:30) 3.89 (13:30) 0 0 0 0 0
23-03-2020 16.1 (16:20) 7.8 (05:50) 12 10.56 (18:30) 3.89 (10:30) 2.4 0.9 1.5 0 0
22-03-2020 13.4 (13:00) 5.8 (08:50) 9.6 6.11 (13:40) 3.33 (16:00) 1.5 0 0 1.1 0.4
21-03-2020 10.5 (10:10) 6.6 (00:00) 8.5 9.17 (02:50) 5.28 (10:50) 0 0 0 0 0
20-03-2020 16.4 (15:40) 7.9 (00:00) 12.1 11.11 (17:30) 4.72 (10:10) 0 0 0 0 0
19-03-2020 16.5 (15:30) 6.8 (00:00) 11.7 11.67 (23:50) 4.72 (23:30) 0.2 0 0 0.2 0
18-03-2020 16.1 (15:40) 8.5 (00:00) 12.3 9.17 (14:50) 3.33 (14:10) 0.1 0 0 0 0.1
17-03-2020 16.6 (15:40) 3.1 (00:00) 9.9 11.11 (14:00) 4.72 (14:30) 0 0 0 0 0
16-03-2020 11 (00:40) 4 (00:00) 7.5 10.28 (00:20) 5.56 (00:10) 6.7 5.9 0.7 0 0.1
15-03-2020 21.3 (16:20) 9.1 (00:00) 15.2 12.78 (17:30) 6.11 (16:00) 5.3 0 0 1.4 3.9
14-03-2020 23.5 (16:20) 7.9 (00:00) 15.7 5.83 (01:30) 2.22 (01:50) 0 0 0 0 0
13-03-2020 24.2 (15:40) 12.1 (07:30) 18.2 6.94 (19:40) 3.06 (10:40) 0 0 0 0 0
12-03-2020 27.7 (15:30) 8.7 (00:00) 18.2 6.39 (16:10) 3.33 (17:40) 0 0 0 0 0
11-03-2020 28.3 (16:00) 6.2 (00:00) 17.2 3.06 (17:40) 1.67 (00:20) 0 0 0 0 0
10-03-2020 23 (17:00) 2.5 (00:00) 12.8 6.11 (17:30) 2.78 (17:30) 0 0 0 0 0
09-03-2020 17.2 (16:20) 3.7 (00:00) 10.5 8.06 (18:10) 3.89 (15:20) 0 0 0 0 0
08-03-2020 18.7 (16:20) -0.3 (00:00) 9.2 8.33 (16:10) 3.61 (16:50) 0 0 0 0 0
07-03-2020 15.2 (16:10) 0.9 (00:00) 8 9.17 (17:00) 4.72 (14:00) 0 0 0 0 0
06-03-2020 12.2 (14:20) 2.9 (00:00) 7.5 15.56 (12:10) 6.67 (09:50) 0.4 0 0.4 0 0
05-03-2020 16 (15:20) 7.8 (00:00) 11.9 13.89 (16:20) 7.5 (11:20) 0 0 0 0 0
04-03-2020 16.4 (15:20) 9.3 (23:50) 12.8 9.17 (12:40) 4.72 (12:00) 0 0 0 0 0
03-03-2020 14.4 (13:50) 2.4 (00:00) 8.4 11.39 (13:20) 5.83 (11:40) 0 0 0 0 0
02-03-2020 14.4 (14:10) 3.2 (00:00) 8.8 26.67 (06:10) 12.22 (06:00) 0.6 0 0.1 0.5 0
01-03-2020 15.6 (16:40) 7.9 (00:00) 11.8 14.17 (17:10) 9.44 (23:50) 0.1 0 0.1 0 0
29-02-2020 14.8 (16:40) 5.5 (00:00) 10.2 12.5 (12:30) 6.67 (13:30) 0 0 0 0 0
28-02-2020 20.4 (16:10) 1.9 (00:00) 11.1 6.67 (17:10) 3.61 (17:10) 0 0 0 0 0

Gráficas

Temp. máximas Temp. mínimas Temp. medias Precipitaciones Rachas de viento máximas Velocidades máximas media en intervalos de 10 minutos

Datos horarios

Fecha y hora oficial Temperatura (ºC) Velocidad del viento (km/h) Dirección del viento Racha (km/h) Dirección de racha Precipitación (mm) Presión (hPa) Tendencia (hPa) Humedad (%)
2020-03-28 23:00:00 8.8 0 Calma 8 Sur 0 937.4 1 60
2020-03-28 22:00:00 9.6 5 Sur 10 Sur 0 937.3 1.4 53
2020-03-28 21:00:00 10.5 2 Sudeste 7 Sur 0 936.8 1.3 46
2020-03-28 20:00:00 12.1 0 Calma 8 Sur 0 936.4 1.1 41
2020-03-28 19:00:00 13.3 3 Sudeste 13 Sudoeste 0 935.9 0.5 37
2020-03-28 18:00:00 14 5 Sur 15 Sudeste 0 935.5 -0.5 36
2020-03-28 17:00:00 14.3 6 Sur 14 Sur 0 935.3 -0.7 36
2020-03-28 16:00:00 14.9 5 Sur 18 Sudoeste 0 935.4 -0.9 36
2020-03-28 15:00:00 14.1 7 Sur 19 Sur 0 936 -0.6 37
2020-03-28 14:00:00 13.5 6 Sur 23 Sur 0 936 -0.4 37
2020-03-28 13:00:00 13.6 5 Sudeste 15 Sur 0 936.3 0.2 37
2020-03-28 12:00:00 11.8 4 Sudeste 18 Sudeste 0 936.6 0.6 43
2020-03-28 11:00:00 10.1 7 Sudeste 15 Sudeste 0 936.4 0.8 48
2020-03-28 10:00:00 8 4 Sudeste 18 Este 0 936.1 1.1 66
2020-03-28 09:00:00 5 4 Nordeste 12 Nordeste 0 936 1.5 79
2020-03-28 08:00:00 2.8 2 Nordeste 8 Este 0 935.6 1.4 88
2020-03-28 07:00:00 2.5 3 Este 12 Nordeste 0 935 1.1 90
2020-03-28 06:00:00 2.1 7 Nordeste 13 Este 0 934.5 0.4 90
2020-03-28 05:00:00 3.4 7 Nordeste 12 Nordeste 0 934.2 -0.2 86
2020-03-28 04:00:00 3.8 3 Nordeste 15 Nordeste 0 933.9 0.4 90
2020-03-28 03:00:00 3.3 4 Nordeste 10 Este 0 934.1 0.4 91
2020-03-28 02:00:00 3.2 2 Nordeste 10 Nordeste 0 934.4 1.2 90
2020-03-28 01:00:00 4 4 Nordeste 13 Sudeste 0 933.5 0.5 90
2020-03-28 00:00:00 4.6 5 Sudeste 20 Sudeste 0 933.7 1 88
2020-03-27 23:00:00 4.7 7 Sudeste 28 Sudeste 0.1 933.2 1.2 87
2020-03-27 22:00:00 5.1 10 Sudeste 28 Sudeste 0.6 933 1.3 87
2020-03-27 21:00:00 5.5 5 Este 18 Este 0.2 932.7 1.8 86
2020-03-27 20:00:00 6.1 4 Sudeste 23 Sudeste 0 932 1.7 83
2020-03-27 19:00:00 6.6 7 Sudeste 27 Sudeste 0 931.7 1.3 74
2020-03-27 18:00:00 7 9 Sudeste 27 Sudeste 0 930.9 0.6 69
2020-03-27 17:00:00 7.6 8 Este 24 Sudeste 0 930.3 -0.7 67
2020-03-27 16:00:00 7.6 8 Sudeste 26 Sur 0 930.4 -0.4 68
2020-03-27 15:00:00 7.1 7 Sudeste 25 Sudeste 0 930.3 -0.1 74
2020-03-27 14:00:00 6.2 8 Sudeste 29 Este 0 931 0.9 81
2020-03-27 13:00:00 4.9 9 Este 30 Este 0 930.8 1.4 81
2020-03-27 12:00:00 4.8 9 Este 31 Este 0 930.4 1.4 82
2020-03-27 11:00:00 5 9 Este 26 Este 0 930.1 1.7 79
2020-03-27 10:00:00 4.7 9 Este 29 Este 0 929.4 1.9 80
2020-03-27 09:00:00 5.2 6 Este 21 Este 0 929 2.1 76
2020-03-27 08:00:00 5.1 7 Este 39 Sudeste 0 928.4 1.2 73
2020-03-27 07:00:00 5 13 Sudeste 41 Sudeste 0 927.5 0 77
2020-03-27 06:00:00 5.2 14 Sudeste 35 Sudeste 0 926.9 -0.8 80
2020-03-27 05:00:00 5.2 11 Sudeste 38 Sudeste 0 927.2 -1.1 80
2020-03-27 04:00:00 5.2 14 Sudeste 35 Sudeste 0 927.5 -1 78
2020-03-27 03:00:00 5.8 14 Sudeste 33 Sudeste 0 927.7 -1 72
2020-03-27 02:00:00 6.3 10 Sudeste 33 Sudeste 0 928.3 -0.3 67
2020-03-27 01:00:00 6.3 9 Sudeste 25 Sudeste 0 928.5 0.5 66
2020-03-27 00:00:00 7.6 4 Este 12 Este 0 928.7 0.8 53
2020-03-26 23:00:00 8 2 Nordeste 9 Nordeste 0 928.6 1.5 57
2020-03-26 22:00:00 8.4 5 Nordeste 15 Nordeste 0 928 1.2 55
2020-03-26 21:00:00 9.3 5 Nordeste 15 Este 0 927.9 1.7 48
2020-03-26 20:00:00 11 8 Nordeste 17 Nordeste 0 927.1 0.7 36
2020-03-26 19:00:00 13.3 11 Nordeste 25 Nordeste 0 926.8 0 24
2020-03-26 18:00:00 14.2 14 Nordeste 27 Nordeste 0 926.2 -1 22
2020-03-26 17:00:00 14.6 13 Nordeste 24 Nordeste 0 926.4 -1.4 22
2020-03-26 16:00:00 15.3 10 Nordeste 26 Norte 0 926.8 -1.3 21
2020-03-26 15:00:00 14.7 12 Norte 30 Norte 0 927.2 -1.3 21
2020-03-26 14:00:00 13.2 8 Norte 22 Noroeste 0 927.8 -1.2 26
2020-03-26 13:00:00 12.2 8 Norte 21 Noroeste 0 928.1 -1.2 29
2020-03-26 12:00:00 11 6 Norte 16 Norte 0 928.5 -0.9 33
2020-03-26 11:00:00 10 6 Nordeste 20 Norte 0 929 -0.5 45
2020-03-26 10:00:00 7.8 9 Nordeste 19 Nordeste 0 929.3 0.5 70
2020-03-26 09:00:00 4.3 9 Nordeste 15 Nordeste 0.1 929.4 0.7 96
2020-03-26 08:00:00 2.7 8 Nordeste 13 Nordeste 0 929.5 0.9 96
2020-03-26 07:00:00 2.4 5 Nordeste 9 Nordeste 0 928.8 -0.2 95
2020-03-26 06:00:00 3.2 4 Nordeste 7 Nordeste 0 928.7 -0.5 95
2020-03-26 05:00:00 4.3 0 Calma 6 Nordeste 0 928.6 -1.7 95
2020-03-26 04:00:00 5.1 0 Calma 6 Norte 0 929 -2 94
2020-03-26 03:00:00 6.1 0 Calma 5 Sur 0 929.2 -1.8 94
2020-03-26 02:00:00 6.4 0 Calma 7 Sur 0 930.3 -0.8 91
2020-03-26 01:00:00 7.6 3 Sudoeste 15 Sur 0 931 -1 90
2020-03-26 00:00:00 7.9 3 Sur 14 Sur 0 931 0 90
2020-03-25 23:00:00 8.8 6 Sur 21 Sur 0.1 931.1 0.1 87
2020-03-25 22:00:00 9.7 6 Sudeste 35 Nordeste 2.2 932 0.9 83
2020-03-25 21:00:00 13.6 0 Calma 5 Oeste 0 931 -0.1 45
2020-03-25 20:00:00 13.6 0 Calma 13 Noroeste 0 931 -0.3 40
2020-03-25 19:00:00 14.5 3 Noroeste 18 Norte 0 931.1 -1 35
2020-03-25 18:00:00 15.1 6 Noroeste 18 Noroeste 0 931.1 -1.6 34
2020-03-25 17:00:00 15.6 3 Norte 18 Noroeste 0 931.3 -2.3 33
2020-03-25 16:00:00 14.9 4 Norte 19 Nordeste 0 932.1 -2.3 36
2020-03-25 15:00:00 14.6 6 Norte 18 Noroeste 0 932.7 -1.9 42
2020-03-25 14:00:00 13.8 3 Oeste 14 Noroeste 0 933.6 -1.6 44
2020-03-25 13:00:00 11.6 3 Noroeste 13 Sudoeste 0 934.4 -0.8 49
2020-03-25 12:00:00 11.2 3 Sudoeste 12 Sudoeste 0 934.6 -0.1 60
2020-03-25 11:00:00 9.3 3 Sudoeste 10 Sudoeste 0 935.2 0.3 69
2020-03-25 10:00:00 6.9 0 Calma 6 Sudoeste 0 935.2 0.5 78
2020-03-25 09:00:00 6 0 Calma 9 Norte 0 934.7 -0.2 87
2020-03-25 08:00:00 4.5 0 Calma 6 Nordeste 0 934.9 0.1 91
2020-03-25 07:00:00 4.6 0 Calma 5 Norte 0 934.7 -0.3 90
2020-03-25 06:00:00 5.1 0 Calma 8 Sudoeste 0 934.9 -0.4 88
2020-03-25 05:00:00 5 0 Calma 6 Sur 0 934.8 -0.7 87
2020-03-25 04:00:00 5.9 3 Sudoeste 10 Sur 0 935 -0.3 86
2020-03-25 03:00:00 6.7 0 Calma 9 Sudeste 0 935.3 0.1 83
2020-03-25 02:00:00 7.1 0 Calma 13 Sudeste 0 935.5 0.2 82
2020-03-25 01:00:00 7.6 7 Sudeste 16 Sudeste 0 935.3 0.6 80
2020-03-25 00:00:00 7.9 3 Sudeste 17 Sur 0 935.2 1.1 77
2020-03-24 23:00:00 7.9 6 Sudeste 23 Sudeste 0 935.3 1.1 74
2020-03-24 22:00:00 8.5 9 Sudeste 27 Sudeste 0 934.7 1.1 70
2020-03-24 21:00:00 9 9 Sudeste 26 Sudeste 0 934.1 1 68
2020-03-24 20:00:00 9.8 10 Sudeste 32 Sudeste 0 934.2 1.2 65
2020-03-24 19:00:00 11.4 8 Sudeste 28 Sudeste 0 933.6 0.6 57
2020-03-24 18:00:00 12 11 Sudeste 29 Sur 0 933.1 0 56
2020-03-24 17:00:00 12.7 7 Sudeste 24 Sudeste 0 933 -0.3 52
2020-03-24 16:00:00 13.8 12 Sudeste 31 Sur 0 933 -0.8 49
2020-03-24 15:00:00 13.4 9 Este 38 Sudeste 0 933.1 -0.5 51
2020-03-24 14:00:00 14.8 11 Sudeste 42 Sudeste 0 933.3 -0.3 48
2020-03-24 13:00:00 13.8 14 Sudeste 40 Sur 0 933.8 0.1 52
2020-03-24 12:00:00 13.1 10 Sudeste 33 Este 0 933.6 0 56
2020-03-24 11:00:00 12.1 9 Este 31 Sur 0 933.6 0.3 65
2020-03-24 10:00:00 11.3 6 Sudeste 19 Este 0 933.7 1 70
2020-03-24 09:00:00 10.2 4 Este 15 Este 0 933.6 0.3 77
2020-03-24 08:00:00 9.6 3 Este 18 Este 0 933.3 0.3 81
2020-03-24 07:00:00 9.4 5 Este 19 Nordeste 0 932.7 -0.4 83
2020-03-24 06:00:00 9.4 7 Este 24 Este 0 933.3 0.1 86
2020-03-24 05:00:00 9.5 7 Sudeste 16 Este 0 933 -0.4 84
2020-03-24 04:00:00 10.1 5 Este 18 Este 0 933.1 -0.4 75
2020-03-24 03:00:00 10 4 Este 15 Este 0 933.2 -0.8 76
2020-03-24 02:00:00 10 3 Este 23 Sudeste 0 933.4 -0.6 76
2020-03-24 01:00:00 10.3 6 Sudeste 22 Sudeste 0 933.5 -0.3 76
2020-03-24 00:00:00 10.4 5 Sudeste 17 Sudeste 0 934 0.3 77
2020-03-23 23:00:00 10.3 6 Este 24 Sudeste 0 934 0.7 76
2020-03-23 22:00:00 10.2 10 Sudeste 29 Este 0 933.8 1 75
2020-03-23 21:00:00 10.5 9 Sudeste 21 Este 0 933.7 1.9 75
2020-03-23 20:00:00 10.8 5 Este 21 Este 0 933.3 1.4 74
2020-03-23 19:00:00 11.5 11 Sudeste 38 Sudeste 0 932.8 0.7 63
2020-03-23 18:00:00 13.9 10 Sudeste 33 Sudeste 0 931.8 -0.1 49
2020-03-23 17:00:00 14.6 12 Sudeste 30 Sudeste 0 931.9 -0.6 51
2020-03-23 16:00:00 15.4 9 Sudeste 33 Sudeste 0 932.1 -0.8 54
2020-03-23 15:00:00 14.9 14 Sudeste 33 Sudeste 0 931.9 -1.5 48
2020-03-23 14:00:00 14.9 6 Sudeste 28 Sur 0 932.5 -1 55
2020-03-23 13:00:00 14.8 11 Sudeste 28 Sudeste 0 932.9 -0.1 52
2020-03-23 12:00:00 12.8 8 Sudeste 20 Sudeste 0 933.4 0.3 69
2020-03-23 11:00:00 9.5 8 Sur 31 Sudeste 0.5 933.5 0.9 84
2020-03-23 10:00:00 10.7 6 Sudeste 18 Sudeste 0 933 0.9 83
2020-03-23 09:00:00 9.3 3 Este 12 Este 0.6 933.1 1.2 94
2020-03-23 08:00:00 8.2 0 Calma 8 Este 0.4 932.6 1 93
2020-03-23 07:00:00 7.9 0 Calma 10 Este 0 932.1 0.6 94
2020-03-23 06:00:00 7.9 6 Nordeste 12 Nordeste 0.6 931.9 0.3 94
2020-03-23 05:00:00 8.1 3 Sudeste 13 Sur 0.2 931.6 -0.5 92
2020-03-23 04:00:00 8.3 4 Sudeste 14 Sudeste 0 931.5 -0.6 91
2020-03-23 03:00:00 8.4 4 Sudeste 21 Sudeste 0 931.6 -0.5 91
2020-03-23 02:00:00 8.4 6 Sudeste 16 Sudeste 0 932.1 0.5 91
2020-03-23 01:00:00 8.2 5 Sudeste 17 Sur 0.1 932.1 0.3 91
2020-03-23 00:00:00 8.4 4 Sudeste 13 Sudeste 0 932.1 0.7 91
2020-03-22 23:00:00 8.1 3 Sudeste 12 Sudeste 0 931.6 1.3 91
2020-03-22 22:00:00 8.6 5 Sudeste 17 Sudeste 0 931.8 1.8 90
2020-03-22 21:00:00 8.9 5 Sudeste 20 Este 0.1 931.4 2 88
2020-03-22 20:00:00 9.3 6 Sudeste 17 Sudeste 0 930.3 1.3 85
2020-03-22 19:00:00 9.5 0 Calma 17 Este 0.3 930 1.2 84
2020-03-22 18:00:00 9.5 3 Este 20 Sudeste 0.9 929.4 0.3 85
2020-03-22 17:00:00 10.7 3 Este 15 Nordeste 0.2 929 -0.4 81
2020-03-22 16:00:00 9.9 12 Nordeste 21 Nordeste 0 928.8 -1 83
2020-03-22 15:00:00 11.7 2 Sudeste 17 Sudoeste 0 929.1 -0.9 65
2020-03-22 14:00:00 10.5 7 Sur 22 Sudoeste 0 929.4 -1.1 70
2020-03-22 13:00:00 12.7 4 Este 16 Sudeste 0 929.8 -0.8 55
2020-03-22 12:00:00 11.8 2 Sudeste 20 Sur 0 930 -0.1 66
2020-03-22 11:00:00 11.4 8 Sudeste 17 Sudeste 0 930.5 0.4 65
2020-03-22 10:00:00 8 0 Calma 7 Noroeste 0 930.6 1.4 84
2020-03-22 09:00:00 6.2 0 Calma 11 Sudoeste 0 930.1 0.9 92
2020-03-22 08:00:00 6.1 0 Calma 9 Nordeste 0 930.1 0.7 91
2020-03-22 07:00:00 6 3 Nordeste 9 Sudeste 0 929.2 -0.3 90
2020-03-22 06:00:00 6.5 3 Nordeste 13 Este 0 929.2 -0.8 91
2020-03-22 05:00:00 6.7 0 Calma 13 Sudeste 0 929.4 -1 91
2020-03-22 04:00:00 6.5 5 Sudeste 14 Sudeste 0 929.5 -1.1 92
2020-03-22 03:00:00 6.4 7 Sudeste 19 Sudeste 0 930 -0.9 92
2020-03-22 02:00:00 6.4 8 Sudeste 18 Sur 0 930.4 -0.2 92
2020-03-22 01:00:00 6.3 7 Sur 19 Sudeste 0 930.6 -0.2 91
2020-03-22 00:00:00 6.6 5 Sur 13 Sur 0 930.9 0.3 91
2020-03-21 23:00:00 7.3 3 Sudeste 14 Sudeste 0 930.6 0.2 88
2020-03-21 22:00:00 7.3 4 Sudeste 12 Este 0 930.8 0.5 86
2020-03-21 21:00:00 7.8 2 Sudeste 12 Sudeste 0 930.6 0.7 83
2020-03-21 20:00:00 8.4 5 Sudeste 14 Sudeste 0 930.4 0.3 77
2020-03-21 19:00:00 9.1 5 Sudeste 13 Sudeste 0 930.3 0 75
2020-03-21 18:00:00 9.8 3 Sur 9 Sur 0 929.9 -1 69
2020-03-21 17:00:00 9.9 0 Calma 8 Sur 0 930.1 -1.7 69
2020-03-21 16:00:00 9.7 0 Calma 12 Oeste 0 930.3 -1.4 70
2020-03-21 15:00:00 9 3 Sudoeste 16 Oeste 0 930.9 -0.7 74
2020-03-21 14:00:00 8.5 12 Sudoeste 23 Sudoeste 0 931.8 0.3 76
2020-03-21 13:00:00 9.1 17 Oeste 26 Oeste 0 931.7 0.5 67
2020-03-21 12:00:00 9.2 9 Sudoeste 30 Oeste 0 931.6 0.7 72
2020-03-21 11:00:00 9.3 19 Oeste 32 Oeste 0 931.5 0.6 83
2020-03-21 10:00:00 10.3 12 Sur 28 Sudeste 0 931.2 0.7 80
2020-03-21 09:00:00 9.4 12 Sudeste 27 Sudeste 0 930.9 0.2 86
2020-03-21 08:00:00 8.9 11 Sudeste 26 Sudeste 0 930.9 0 88
2020-03-21 07:00:00 8.5 10 Sudeste 30 Sudeste 0 930.5 -0.8 88
2020-03-21 06:00:00 8.4 12 Sudeste 31 Sudeste 0 930.7 -1.4 87
2020-03-21 05:00:00 8.3 10 Sudeste 29 Sudeste 0 930.9 -1.6 87
2020-03-21 04:00:00 8.2 8 Sudeste 33 Sudeste 0 931.3 -1.6 86
2020-03-21 03:00:00 8.3 11 Sudeste 33 Sudeste 0 932.1 -1.3 85
2020-03-21 02:00:00 8 12 Sudeste 30 Sur 0 932.5 -0.7 83
2020-03-21 01:00:00 7.9 13 Sudeste 32 Sudeste 0 932.9 -0.2 81
2020-03-21 00:00:00 8.1 12 Sudeste 37 Sudeste 0 933.4 0.2 77
2020-03-20 23:00:00 8.5 13 Sudeste 35 Sudeste 0 933.2 0.4 74
2020-03-20 22:00:00 9 10 Sudeste 28 Sudeste 0 933.1 0.5 75
2020-03-20 21:00:00 9.7 12 Sudeste 32 Sudeste 0 933.2 0.5 77
2020-03-20 20:00:00 10.5 11 Sudeste 36 Sudeste 0 932.8 0.2 75
2020-03-20 19:00:00 11.7 12 Sudeste 38 Sur 0 932.6 -0.6 67
2020-03-20 18:00:00 13 14 Sudeste 40 Sudeste 0 932.7 -1.2 62
2020-03-20 17:00:00 14.4 14 Sudeste 39 Sudeste 0 932.6 -1.6 55
2020-03-20 16:00:00 15 15 Sudeste 35 Sudeste 0 933.2 -1.2 52
2020-03-20 15:00:00 15.2 13 Sudeste 33 Sudeste 0 933.9 -1 52
2020-03-20 14:00:00 14.6 13 Sudeste 33 Sudeste 0 934.2 -1.3 52
2020-03-20 13:00:00 14.6 11 Sudeste 33 Sudeste 0 934.4 -1 55
2020-03-20 12:00:00 13.5 11 Sudeste 33 Sudeste 0 934.9 -0.2 56
2020-03-20 11:00:00 12.4 13 Sudeste 37 Sudeste 0 935.5 0.5 63
2020-03-20 10:00:00 11 12 Sudeste 34 Sudeste 0 935.4 0.6 72
2020-03-20 09:00:00 9.4 11 Sudeste 29 Sur 0 935.1 0.7 85
2020-03-20 08:00:00 8.1 11 Sudeste 29 Sudeste 0 935 0.6 88
2020-03-20 07:00:00 8.3 12 Sudeste 31 Sudeste 0 934.8 0.1 83
2020-03-20 06:00:00 8.5 9 Sudeste 25 Sudeste 0 934.4 -0.7 82
2020-03-20 05:00:00 8.5 8 Sudeste 32 Sudeste 0 934.4 -1.1 82
2020-03-20 04:00:00 8.8 12 Sudeste 37 Sudeste 0 934.7 -0.6 78
2020-03-20 03:00:00 9.3 12 Sudeste 29 Sudeste 0 935.1 -0.8 77
2020-03-20 02:00:00 9.4 13 Sudeste 34 Sudeste 0 935.5 -0.5 80
2020-03-20 01:00:00 9.8 14 Sudeste 35 Sudeste 0 935.3 -0.2 80
2020-03-20 00:00:00 10 14 Sudeste 42 Sudeste 0 935.9 -0.1 79
2020-03-19 23:00:00 10.3 14 Sudeste 39 Sudeste 0 936 0.4 78
2020-03-19 22:00:00 10.7 13 Sudeste 36 Sudeste 0 935.5 -0.4 76
2020-03-19 21:00:00 11.4 11 Sudeste 33 Sudeste 0 936 0.5 71
2020-03-19 20:00:00 11.9 8 Sudeste 28 Sudeste 0 935.6 -0.2 65
2020-03-19 19:00:00 12.8 10 Sudeste 33 Sudeste 0 935.9 -0.5 61
2020-03-19 18:00:00 14.1 12 Sudeste 36 Sudeste 0 935.5 -1.3 54
2020-03-19 17:00:00 15.3 13 Sudeste 39 Sudeste 0.2 935.8 -1.8 49
2020-03-19 16:00:00 16.4 10 Sudeste 33 Sudeste 0 936.4 -2.2 48
2020-03-19 15:00:00 16 13 Sudeste 37 Sudeste 0 936.8 -2.5 47
2020-03-19 14:00:00 15.5 13 Sudeste 37 Sudeste 0 937.6 -1.9 48
2020-03-19 13:00:00 15 11 Sudeste 35 Sudeste 0 938.6 -1 51
2020-03-19 12:00:00 14.1 13 Sudeste 36 Sudeste 0 939.3 -0.3 55
2020-03-19 11:00:00 12.4 14 Sudeste 36 Sudeste 0 939.5 0 62
2020-03-19 10:00:00 10.8 13 Sudeste 32 Sudeste 0 939.6 0 69
2020-03-19 09:00:00 8.7 8 Sudeste 21 Sudeste 0 939.6 -0.3 80
2020-03-19 08:00:00 7.2 7 Sudeste 16 Este 0 939.5 -0.5 86
2020-03-19 07:00:00 6.9 2 Este 10 Este 0 939.6 -0.4 86
2020-03-19 06:00:00 7.1 3 Este 11 Este 0 939.9 -0.4 86
2020-03-19 05:00:00 7.2 3 Sudeste 13 Sudeste 0 940 -0.8 86
2020-03-19 04:00:00 7.6 5 Sudeste 16 Sudeste 0 940 -1 86
2020-03-19 03:00:00 7.8 5 Sudeste 17 Sur 0 940.3 -1.3 85
2020-03-19 02:00:00 8.3 4 Sudeste 22 Sudeste 0 940.8 -0.9 83
2020-03-19 01:00:00 8.5 8 Sudeste 31 Sudeste 0 941 -0.9 82
2020-03-19 00:00:00 8.9 12 Sudeste 31 Sudeste 0 941.6 0.2 73
2020-03-18 23:00:00 9.6 10 Sudeste 26 Sudeste 0 941.7 0.3 63
2020-03-18 22:00:00 10.7 10 Sudeste 29 Sudeste 0 941.9 0.5 55
2020-03-18 21:00:00 11.8 4 Sudeste 15 Sudeste 0 941.4 0.2 56
2020-03-18 20:00:00 12.9 7 Sudeste 15 Sudeste 0.1 941.4 0.3 53
2020-03-18 19:00:00 14.3 8 Sudeste 22 Sur 0 941.4 0 52
2020-03-18 18:00:00 15.1 6 Sudeste 23 Sudeste 0 941.2 -0.4 51
2020-03-18 17:00:00 14.8 5 Sudeste 27 Sur 0 941.1 -1.3 53
2020-03-18 16:00:00 15.1 9 Sudeste 26 Sudeste 0 941.4 -1.9 52
2020-03-18 15:00:00 15.6 9 Sudeste 33 Sudeste 0 941.6 -2.4 54
2020-03-18 14:00:00 15.2 10 Sudeste 27 Sudeste 0 942.4 -1.6 53
2020-03-18 13:00:00 14.1 12 Sudeste 32 Sudeste 0 943.3 -0.8 57
2020-03-18 12:00:00 12.6 10 Sudeste 26 Sudeste 0 944 0.1 63
2020-03-18 11:00:00 11.8 7 Este 23 Este 0 944 0.4 67
2020-03-18 10:00:00 10.8 6 Sudeste 27 Sur 0 944.1 0.2 73
2020-03-18 09:00:00 10.1 6 Sudeste 24 Este 0 943.9 0.7 75
2020-03-18 08:00:00 9.5 5 Sudeste 16 Este 0 943.6 0 76
2020-03-18 07:00:00 9.3 3 Este 20 Sudeste 0 943.9 0.7 78
2020-03-18 06:00:00 9.1 7 Sudeste 22 Sudeste 0 943.2 -0.2 80
2020-03-18 05:00:00 8.7 5 Sudeste 15 Sudeste 0 943.6 0.2 81
2020-03-18 04:00:00 8.8 3 Este 10 Este 0 943.2 -0.8 81
2020-03-18 03:00:00 9.1 5 Este 10 Este 0 943.4 -0.6 81
2020-03-18 02:00:00 9.9 2 Este 17 Sudeste 0 943.4 -0.8 78
2020-03-18 01:00:00 10.6 6 Sudeste 16 Sudeste 0 944 0.3 78
2020-03-18 00:00:00 10.9 6 Sudeste 17 Sudeste 0 944 0.5 75
2020-03-17 23:00:00 11.8 5 Sudeste 21 Este 0 944.2 1.4 73
2020-03-17 22:00:00 12.5 8 Este 25 Este 0 943.7 1.8 71
2020-03-17 21:00:00 13.1 8 Sudeste 25 Sur 0 943.5 1.9 72
2020-03-17 20:00:00 13.2 6 Sudeste 22 Sudeste 0 942.8 2.2 68
2020-03-17 19:00:00 13.8 5 Este 19 Sudeste 0 941.9 1.4 61
2020-03-17 18:00:00 14.4 7 Sudeste 33 Sudeste 0 941.6 0.8 60
2020-03-17 17:00:00 15.6 14 Sudeste 34 Sudeste 0 940.6 -0.5 56
2020-03-17 16:00:00 15.7 13 Sudeste 32 Sur 0 940.5 -0.6 54
2020-03-17 15:00:00 15.7 7 Sudeste 37 Sudeste 0 940.8 -0.3 54
2020-03-17 14:00:00 15.8 15 Sudeste 40 Sur 0 941.1 0.3 52
2020-03-17 13:00:00 15.1 12 Sudeste 30 Sudeste 0 941.1 0.7 54
2020-03-17 12:00:00 13 14 Sudeste 35 Sudeste 0 941.1 1.2 56
2020-03-17 11:00:00 11.9 8 Sudeste 26 Sudeste 0 940.8 1.6 65
2020-03-17 10:00:00 10.6 8 Sudeste 23 Sudeste 0 940.4 1.9 72
2020-03-17 09:00:00 8.3 2 Este 13 Este 0 939.9 2.3 87
2020-03-17 08:00:00 7.3 5 Sudeste 15 Sudeste 0 939.2 2.1 88
2020-03-17 07:00:00 6.4 5 Sudeste 15 Sudeste 0 938.5 1.8 89
2020-03-17 06:00:00 5 3 Sudeste 13 Sudeste 0 937.6 0.5 90
2020-03-17 05:00:00 3.8 6 Nordeste 9 Nordeste 0 937.1 0.4 89
2020-03-17 04:00:00 3.1 4 Nordeste 10 Nordeste 0 936.7 -0.2 87
2020-03-17 03:00:00 3.6 0 Calma 9 Sudeste 0 937.1 0.4 87
2020-03-17 02:00:00 3.7 0 Calma 9 Sudeste 0 936.7 0.6 86
2020-03-17 01:00:00 4 2 Sudeste 12 Sudeste 0 936.9 2 83
2020-03-17 00:00:00 4.3 5 Sudeste 11 Sudeste 0 936.7 2.4 82
2020-03-16 23:00:00 4.7 3 Sudeste 8 Sur 0 936.1 2.7 78
2020-03-16 22:00:00 5 0 Calma 11 Sudeste 0 934.9 1.8 76
2020-03-16 21:00:00 5.5 3 Sudeste 10 Sur 0 934.3 2.3 69
2020-03-16 20:00:00 6.4 3 Sudeste 15 Sur 0 933.4 1.8 67
2020-03-16 19:00:00 6.6 8 Sudeste 18 Sur 0.1 933.1 2 64
2020-03-16 18:00:00 7.5 8 Sur 15 Sudoeste 0 932 0.9 52
2020-03-16 17:00:00 7.9 6 Sudoeste 15 Sur 0 931.6 0.3 49
2020-03-16 16:00:00 7.5 7 Sur 18 Sur 0 931.1 -0.1 54
2020-03-16 15:00:00 6.5 11 Sur 21 Sur 0 931.1 -0.2 60
2020-03-16 14:00:00 6.9 10 Sur 22 Sudoeste 0 931.3 0.1 60
2020-03-16 13:00:00 6.4 11 Sudoeste 24 Sudoeste 0 931.2 0.5 63
2020-03-16 12:00:00 5.5 11 Sudoeste 22 Sur 0 931.3 1.2 69
2020-03-16 11:00:00 4.8 12 Sudoeste 24 Oeste 0 931.2 1.6 75
2020-03-16 10:00:00 4.8 13 Sudoeste 26 Sudoeste 0 930.7 1.7 82
2020-03-16 09:00:00 4.7 11 Oeste 24 Sudoeste 0 930.1 0.7 82
2020-03-16 08:00:00 4.9 12 Sudoeste 22 Sudoeste 0 929.6 1.2 91
2020-03-16 07:00:00 4.7 13 Sudoeste 23 Sudoeste 0.7 929 0.7 88
2020-03-16 06:00:00 4 17 Oeste 34 Oeste 1 929.4 0.9 86
2020-03-16 05:00:00 8.7 3 Oeste 23 Oeste 0.1 928.4 -0.6 86
2020-03-16 04:00:00 10 2 Oeste 26 Sudoeste 0.1 928.3 -1.4 85
2020-03-16 03:00:00 10.6 14 Sudoeste 29 Sudoeste 0.3 928.5 -2.3 90
2020-03-16 02:00:00 10.7 10 Sur 31 Sudoeste 0.7 929 -2.7 89
2020-03-16 01:00:00 10.7 17 Sudoeste 37 Sudoeste 3.7 929.7 -1.7 87
2020-03-16 00:00:00 10.7 19 Oeste 33 Oeste 3.2 930.8 -0.5 82
2020-03-15 23:00:00 11.8 5 Sudoeste 13 Sudoeste 0 931.7 1.5 75
2020-03-15 22:00:00 12 2 Oeste 26 Oeste 0 931.4 2 72
2020-03-15 21:00:00 13.5 9 Oeste 26 Oeste 0 931.3 0.7 64
2020-03-15 20:00:00 14.6 2 Sur 8 Sur 0 930.2 -0.7 61
2020-03-15 19:00:00 14.5 0 Calma 16 Nordeste 0.7 929.4 -1.3 70
2020-03-15 18:00:00 13.7 8 Norte 46 Noroeste 1.4 930.6 -0.8 66
2020-03-15 17:00:00 17.5 14 Norte 34 Sudoeste 0 930.9 -1.4 41
2020-03-15 16:00:00 20.5 22 Sudoeste 35 Oeste 0 930.7 -3.2 36
2020-03-15 15:00:00 20.4 19 Sudoeste 35 Oeste 0 931.4 -3.2 38
2020-03-15 14:00:00 19 16 Sudoeste 31 Oeste 0 932.3 -2.9 44
2020-03-15 13:00:00 19.1 9 Sur 20 Sur 0 933.9 -1.4 48
2020-03-15 12:00:00 16.6 10 Sur 22 Sudeste 0 934.6 -0.6 56
2020-03-15 11:00:00 15.7 8 Sur 24 Sur 0 935.2 0.1 63
2020-03-15 10:00:00 12.5 11 Sudeste 27 Sudeste 0 935.3 0.6 79
2020-03-15 09:00:00 10.4 12 Sudeste 28 Sudeste 0 935.2 0.6 92
2020-03-15 08:00:00 9.4 11 Sudeste 26 Sudeste 0 935.1 0 94
2020-03-15 07:00:00 9.4 12 Sudeste 30 Sudeste 0 934.7 -0.6 93
2020-03-15 06:00:00 10.1 13 Sudeste 30 Sudeste 0 934.6 -1.3 90
2020-03-15 05:00:00 11 11 Sudeste 31 Sudeste 0 935.1 -1.1 87
2020-03-15 04:00:00 11.4 10 Sudeste 25 Sudeste 0 935.3 -1 85
2020-03-15 03:00:00 12.2 11 Sudeste 25 Sudeste 0 935.9 -0.6 80
2020-03-15 02:00:00 12.9 8 Sudeste 21 Sudeste 0 936.2 -0.6 72
2020-03-15 01:00:00 13.7 5 Sudeste 15 Sudeste 0 936.3 0.1 63
2020-03-15 00:00:00 14.4 0 Calma 9 Sudeste 0 936.5 0.1 55
2020-03-14 23:00:00 14.2 0 Calma 9 Sudeste 0 936.8 0.6 50
2020-03-14 22:00:00 14.8 0 Calma 9 Nordeste 0 936.2 0.3 48
2020-03-14 21:00:00 17.1 0 Calma -- -- 0 936.4 0.9 45
2020-03-14 20:00:00 19 0 Calma 9 Oeste 0 936.2 0.5 40
2020-03-14 19:00:00 20.1 6 Oeste 13 Sudoeste 0 935.9 -0.5 37
2020-03-14 18:00:00 21.2 6 Sudoeste 13 Sudoeste 0 935.5 -1 35
2020-03-14 17:00:00 22.5 0 Calma 14 Sudoeste 0 935.7 -1.9 35
2020-03-14 16:00:00 22.6 0 Calma 13 Sudoeste 0 936.4 -1.4 37
2020-03-14 15:00:00 22.7 3 Sur 13 Sudoeste 0 936.5 -2.1 40
2020-03-14 14:00:00 20.9 5 Sudoeste 10 Oeste 0 937.6 -1.4 44
2020-03-14 13:00:00 19.3 5 Norte 10 Norte 0 937.8 -1.1 49
2020-03-14 12:00:00 17.9 3 Sur 8 Sur 0 938.6 0.1 52
2020-03-14 11:00:00 16.2 0 Calma 12 Sur 0 939 0.4 60
2020-03-14 10:00:00 13.8 5 Sur 13 Sudeste 0 938.9 1.9 68
2020-03-14 09:00:00 10.4 2 Norte 11 Nordeste 0 938.5 1.4 82
2020-03-14 08:00:00 8.2 6 Nordeste 15 Sudeste 0 938.6 1.4 82
2020-03-14 07:00:00 9.6 6 Sudeste 15 Sudeste 0 937 0.4 81
2020-03-14 06:00:00 10.3 3 Sudeste 10 Sudeste 0 937.1 0.2 79
2020-03-14 05:00:00 10.9 3 Sudeste 14 Sudeste 0 937.2 0.2 79
2020-03-14 04:00:00 11.1 8 Sudeste 18 Sur 0 936.6 -0.5 77
2020-03-14 03:00:00 11.5 7 Sudeste 21 Sudeste 0 936.9 0 75
2020-03-14 02:00:00 12.1 6 Sudeste 21 Sudeste 0 937 -0.1 74
2020-03-14 01:00:00 12.4 6 Sudeste 15 Sudeste 0 937.1 0.8 71
2020-03-14 00:00:00 13.4 6 Sudeste 18 Este 0 936.9 1.1 68
2020-03-13 23:00:00 14.1 4 Sur 18 Sudeste 0 937.1 2 64
2020-03-13 22:00:00 15.3 6 Sur 22 Sudeste 0 936.3 2 59
2020-03-13 21:00:00 16.7 8 Sudeste 23 Sur 0 935.8 1.7 53
2020-03-13 20:00:00 18.4 10 Sudeste 25 Sudeste 0 935.1 1 47
2020-03-13 19:00:00 20.8 7 Sudeste 20 Sudeste 0 934.3 -0.1 41
2020-03-13 18:00:00 22.4 7 Sur 17 Sur 0 934.1 -0.8 37
2020-03-13 17:00:00 23.4 9 Sur 22 Sur 0 934.1 -1.6 37
2020-03-13 16:00:00 23.4 7 Sur 21 Sur 0 934.4 -2.1 37
2020-03-13 15:00:00 23.2 6 Sur 23 Sur 0 934.9 -2 37
2020-03-13 14:00:00 22.4 9 Sur 22 Sur 0 935.7 -1 41
2020-03-13 13:00:00 21.6 7 Sur 21 Sur 0 936.5 -0.4 45
2020-03-13 12:00:00 19.6 10 Sur 22 Sur 0 936.9 0.6 49
2020-03-13 11:00:00 17.6 9 Sur 22 Sudoeste 0 936.7 0.7 56
2020-03-13 10:00:00 15.6 9 Sur 18 Sur 0 936.9 0.9 60
2020-03-13 09:00:00 13.4 4 Sur 9 Sur 0 936.3 0.7 63
2020-03-13 08:00:00 12.2 3 Sur 11 Sur 0 936 0.2 64
2020-03-13 07:00:00 12.4 4 Sur 9 Sur 0 936 0.4 61
2020-03-13 06:00:00 12.8 4 Sur 10 Sudeste 0 935.6 -0.3 60
2020-03-13 05:00:00 13.5 2 Sudeste 6 Sudeste 0 935.8 -0.3 58
2020-03-13 04:00:00 13.7 0 Calma 3 Sudoeste 0 935.6 -0.5 57
2020-03-13 03:00:00 13.8 0 Calma 4 Oeste 0 935.9 -0.7 56
2020-03-13 02:00:00 14.1 2 Sudoeste 6 Sudoeste 0 936.1 -0.4 53
2020-03-13 01:00:00 15.2 0 Calma 4 Sur 0 936.1 -0.3 49
2020-03-13 00:00:00 15.7 0 Calma 6 Oeste 0 936.6 0.5 46
2020-03-12 23:00:00 16.4 2 Oeste 9 Oeste 0 936.5 0.7 44
2020-03-12 22:00:00 18.9 0 Calma 9 Norte 0 936.4 0.8 39
2020-03-12 21:00:00 20.5 4 Norte 10 Norte 0 936.1 0.5 35
2020-03-12 20:00:00 21.7 5 Noroeste 14 Noroeste 0 935.8 0.5 32
2020-03-12 19:00:00 23.8 8 Oeste 16 Sudoeste 0 935.6 -0.3 27
2020-03-12 18:00:00 25.9 12 Sudoeste 22 Sudoeste 0 935.6 -1.1 25
2020-03-12 17:00:00 26.5 10 Sudoeste 23 Oeste 0 935.3 -2.4 24
2020-03-12 16:00:00 27 6 Oeste 23 Oeste 0 935.9 -2.6 25
2020-03-12 15:00:00 27.1 9 Oeste 21 Oeste 0 936.7 -2.3 25
2020-03-12 14:00:00 26.5 6 Sudoeste 17 Sudoeste 0 937.7 -1.8 28
2020-03-12 13:00:00 25.7 6 Sudoeste 14 Sudoeste 0 938.5 -0.9 32
2020-03-12 12:00:00 23.5 6 Sur 15 Sur 0 939 -0.4 37
2020-03-12 11:00:00 20.2 6 Sur 15 Sudeste 0 939.5 0.2 45
2020-03-12 10:00:00 17.3 7 Sudeste 17 Sur 0 939.4 0.7 55
2020-03-12 09:00:00 11.4 0 Calma 8 Sudeste 0 939.4 0.7 68
2020-03-12 08:00:00 9.3 0 Calma 5 Noroeste 0 939.3 0.2 69
2020-03-12 07:00:00 9.1 0 Calma 7 Oeste 0 938.7 -0.7 66
2020-03-12 06:00:00 10.9 0 Calma 4 Este 0 938.7 -1.7 63
2020-03-12 05:00:00 11 0 Calma 6 Sudoeste 0 939.1 -2.2 62
2020-03-12 04:00:00 11.7 3 Este 8 Este 0 939.4 -1.8 59
2020-03-12 03:00:00 13.5 3 Este 9 Sudeste 0 940.4 -0.7 55
2020-03-12 02:00:00 12.8 2 Sudeste 7 Sudeste 0 941.3 0 56
2020-03-12 01:00:00 13.6 4 Nordeste 9 Nordeste 0 941.2 0.4 56
2020-03-12 00:00:00 13.5 4 Nordeste 8 Nordeste 0 941.1 0.3 53
2020-03-11 23:00:00 14.8 3 Nordeste 8 Nordeste 0 941.3 0.8 46
2020-03-11 22:00:00 17.4 0 Calma 7 Norte 0 940.8 0.2 40
2020-03-11 21:00:00 19 0 Calma 4 Este 0 940.8 0.3 37
2020-03-11 20:00:00 21.3 0 Calma -- -- 0 940.5 0 34
2020-03-11 19:00:00 25 0 Calma 4 Sudoeste 0 940.6 -0.3 26
2020-03-11 18:00:00 26.2 0 Calma 11 Noroeste 0 940.5 -0.9 25
2020-03-11 17:00:00 27.6 0 Calma 10 Sudoeste 0.1 940.5 -1.6 24
2020-03-11 16:00:00 27.7 0 Calma 10 Noroeste 0 940.9 -2.3 25
2020-03-11 15:00:00 26.9 4 Sur 8 Sur 0 941.4 -2.2 28
2020-03-11 14:00:00 24.8 0 Calma 9 Sudoeste 0 942.1 -2 31
2020-03-11 13:00:00 22.8 2 Nordeste 7 Nordeste 0.1 943.2 -0.8 36
2020-03-11 12:00:00 21.2 0 Calma 8 Sudoeste 0 943.6 -0.4 41
2020-03-11 11:00:00 17.7 0 Calma 7 Sudeste 0 944.1 0.4 49
2020-03-11 10:00:00 14.7 2 Sur 8 Sudeste 0 944 0.5 57
2020-03-11 09:00:00 9.1 0 Calma -- -- 0 944 0.9 75
2020-03-11 08:00:00 6.4 0 Calma 5 Nordeste 0 943.7 0.6 77
2020-03-11 07:00:00 7 0 Calma -- -- 0 943.5 0.1 72
2020-03-11 06:00:00 7.7 0 Calma -- -- 0 943.1 -0.3 70
2020-03-11 05:00:00 7.8 0 Calma -- -- 0 943.1 -1.4 68
2020-03-11 04:00:00 8.2 0 Calma -- -- 0 943.4 -1 66
2020-03-11 03:00:00 9.1 0 Calma -- -- 0 943.4 -1.2 64
2020-03-11 02:00:00 9.3 0 Calma 7 Nordeste 0 944.5 -0.2 61
2020-03-11 01:00:00 9.8 0 Calma 9 Nordeste 0 944.4 0 60
2020-03-11 00:00:00 10.6 4 Nordeste 5 Nordeste 0 944.6 0.8 55
2020-03-10 23:00:00 12.7 0 Calma 6 Sudoeste 0 944.7 0.9 48
2020-03-10 22:00:00 13 4 Sudoeste 9 Sudoeste 0 944.4 1.1 44
2020-03-10 21:00:00 15.7 5 Nordeste 8 Nordeste 0 943.8 0.7 39
2020-03-10 20:00:00 18 0 Calma 7 Norte 0 943.8 0.5 34
2020-03-10 19:00:00 20.2 0 Calma 16 Noroeste 0 943.3 -0.5 31
2020-03-10 18:00:00 21.8 7 Noroeste 22 Noroeste 0 943.1 -0.9 28
2020-03-10 17:00:00 23 4 Norte 19 Noroeste 0 943.3 -1.3 28
2020-03-10 16:00:00 22.4 6 Norte 17 Noroeste 0 943.8 -1.8 29
2020-03-10 15:00:00 21.3 6 Norte 15 Noroeste 0 944 -1.9 31
2020-03-10 14:00:00 19.8 6 Noroeste 17 Noroeste 0 944.6 -1.4 32
2020-03-10 13:00:00 17 5 Noroeste 16 Noroeste 0 945.6 -0.5 35
2020-03-10 12:00:00 15.5 4 Sudoeste 15 Sudoeste 0 945.9 0.4 39
2020-03-10 11:00:00 12.8 6 Sudoeste 12 Oeste 0 946 0.4 46
2020-03-10 10:00:00 10.3 4 Sudoeste 7 Sudoeste 0 946.1 1.2 55
2020-03-10 09:00:00 5.8 0 Calma 4 Nordeste 0 945.5 1.3 66
2020-03-10 08:00:00 3.6 0 Calma 5 Sudoeste 0 945.6 1 71
2020-03-10 07:00:00 3 0 Calma 8 Nordeste 0 944.9 0.3 70
2020-03-10 06:00:00 4.7 3 Nordeste 6 Nordeste 0 944.2 -0.1 67
2020-03-10 05:00:00 4.5 0 Calma 4 Nordeste 0 944.6 -0.2 65
2020-03-10 04:00:00 4.8 0 Calma 5 Noroeste 0 944.6 -0.2 63
2020-03-10 03:00:00 4.7 0 Calma 7 Sudoeste 0 944.3 -0.2 59
2020-03-10 02:00:00 6.5 0 Calma -- -- 0 944.8 0.4 55
2020-03-10 01:00:00 7.4 0 Calma 8 Norte 0 944.8 0.9 50
2020-03-10 00:00:00 8.3 0 Calma 9 Norte 0 944.5 1 47
2020-03-09 23:00:00 9.1 0 Calma 7 Norte 0 944.4 1.5 43
2020-03-09 22:00:00 9.8 0 Calma 13 Norte 0 943.9 1.1 40
2020-03-09 21:00:00 11 5 Nordeste 12 Nordeste 0 943.5 1 37
2020-03-09 20:00:00 13.9 2 Norte 10 Norte 0 942.9 1 33
2020-03-09 19:00:00 15.6 7 Norte 29 Norte 0 942.8 0.6 30
2020-03-09 18:00:00 16.1 10 Norte 27 Norte 0 942.5 -0.4 29
2020-03-09 17:00:00 16.6 11 Norte 27 Norte 0 941.9 -1.5 30
2020-03-09 16:00:00 16.6 7 Norte 23 Norte 0 942.2 -1.7 33
2020-03-09 15:00:00 16.1 9 Norte 21 Norte 0 942.9 -1.7 34
2020-03-09 14:00:00 15.5 4 Norte 19 Noroeste 0 943.4 -1.3 39
2020-03-09 13:00:00 12.9 6 Noroeste 17 Noroeste 0 943.9 -0.6 44
2020-03-09 12:00:00 12.8 8 Norte 21 Norte 0 944.6 0.7 47
2020-03-09 11:00:00 11 6 Norte 18 Noroeste 0 944.7 0.9 55
2020-03-09 10:00:00 8.3 0 Calma 8 Norte 0 944.5 1 74
2020-03-09 09:00:00 5.4 0 Calma 7 Oeste 0 943.9 0.7 86
2020-03-09 08:00:00 4.4 0 Calma 9 Sudoeste 0 943.8 1 88
2020-03-09 07:00:00 4.8 0 Calma 11 Noroeste 0 943.5 0.9 83
2020-03-09 06:00:00 5.5 3 Noroeste 14 Oeste 0 943.2 0 78
2020-03-09 05:00:00 5.4 0 Calma 6 Noroeste 0 942.8 -0.3 85
2020-03-09 04:00:00 6.1 0 Calma 6 Noroeste 0 942.6 -0.9 84
2020-03-09 03:00:00 6.9 3 Noroeste 15 Noroeste 0 943.2 0 82
2020-03-09 02:00:00 7.6 0 Calma 13 Noroeste 0 943.1 -0.3 76
2020-03-09 01:00:00 8.5 4 Norte 12 Norte 0 943.5 0.5 72
2020-03-09 00:00:00 8.9 2 Norte 14 Norte 0 943.2 0.8 64
2020-03-08 23:00:00 10.5 5 Norte 12 Noroeste 0 943.4 1.2 55
2020-03-08 22:00:00 12.4 8 Noroeste 19 Noroeste 0 943 0.6 48
2020-03-08 21:00:00 12.6 6 Norte 21 Noroeste 0 942.4 0.3 43
2020-03-08 20:00:00 13.6 2 Norte 15 Norte 0 942.2 0.3 36
2020-03-08 19:00:00 14.8 5 Norte 18 Noroeste 0 942.4 0.7 33
2020-03-08 18:00:00 16 10 Noroeste 26 Noroeste 0 942.1 0.2 31
2020-03-08 17:00:00 17.4 11 Noroeste 30 Noroeste 0 941.9 -0.9 26
2020-03-08 16:00:00 18 8 Noroeste 28 Noroeste 0 941.7 -2 29
2020-03-08 15:00:00 17 5 Noroeste 24 Noroeste 0 941.9 -2.3 33
2020-03-08 14:00:00 16.5 6 Noroeste 20 Oeste 0 942.8 -2.1 36
2020-03-08 13:00:00 14.3 4 Noroeste 23 Noroeste 0 943.7 -0.8 42
2020-03-08 12:00:00 12.8 7 Noroeste 18 Noroeste 0 944.2 -0.2 52
2020-03-08 11:00:00 11 4 Oeste 12 Oeste 0 944.9 1.3 57
2020-03-08 10:00:00 7.9 2 Sur 7 Sur 0 944.5 1.1 68
2020-03-08 09:00:00 3 0 Calma -- -- 0 944.4 0.6 82
2020-03-08 08:00:00 0.5 0 Calma 5 Nordeste 0 943.6 0.1 85
2020-03-08 07:00:00 0.4 0 Calma 4 Nordeste 0 943.4 -0.2 83
2020-03-08 06:00:00 1.2 0 Calma 4 Nordeste 0 943.8 0.3 81
2020-03-08 05:00:00 2.5 0 Calma 5 Sudeste 0 943.5 -0.7 79
2020-03-08 04:00:00 2.7 0 Calma 10 Sudoeste 0 943.6 -0.6 78
2020-03-08 03:00:00 3.6 0 Calma 4 Este 0 943.5 -1.3 74
2020-03-08 02:00:00 4.2 0 Calma -- -- 0 944.2 -0.3 71
2020-03-08 01:00:00 5.1 0 Calma 4 Nordeste 0 944.2 0.4 69
2020-03-08 00:00:00 5.7 0 Calma 5 Oeste 0 944.8 1.5 64
2020-03-07 23:00:00 7.8 0 Calma 8 Sudeste 0 944.5 1.3 59
2020-03-07 22:00:00 8.8 3 Nordeste 15 Norte 0 943.8 1.5 54
2020-03-07 21:00:00 9.7 9 Norte 16 Norte 0 943.3 1.5 49
2020-03-07 20:00:00 11.2 3 Norte 15 Norte 0 943.2 1.6 44
2020-03-07 19:00:00 13.5 8 Norte 25 Nordeste 0 942.3 0.4 41
2020-03-07 18:00:00 14.2 11 Norte 26 Norte 0 941.8 -1.1 40
2020-03-07 17:00:00 14 13 Norte 33 Norte 0 941.6 -1.3 40
2020-03-07 16:00:00 15.1 10 Norte 26 Norte 0 941.9 -1.8 38
2020-03-07 15:00:00 13.8 14 Nordeste 32 Norte 0 942.9 -1.7 40
2020-03-07 14:00:00 13.5 17 Nordeste 32 Nordeste 0 942.9 -1.8 40
2020-03-07 13:00:00 11.7 11 Norte 26 Norte 0 943.7 -0.8 44
2020-03-07 12:00:00 10.2 6 Norte 21 Norte 0 944.6 0.3 49
2020-03-07 11:00:00 8.4 6 Norte 16 Norte 0 944.7 1 53
2020-03-07 10:00:00 6 6 Norte 17 Norte 0 944.5 1.4 59
2020-03-07 09:00:00 3.2 6 Norte 17 Norte 0 944.3 1.7 70
2020-03-07 08:00:00 1.6 0 Calma 5 Norte 0 943.7 1.3 72
2020-03-07 07:00:00 1.3 0 Calma 9 Noroeste 0 943.1 0.7 71
2020-03-07 06:00:00 1.1 5 Noroeste 12 Noroeste 0 942.6 0.4 69
2020-03-07 05:00:00 1.7 2 Este 6 Nordeste 0 942.4 0.2 64
2020-03-07 04:00:00 2.2 3 Nordeste 9 Noroeste 0 942.4 0.5 62
2020-03-07 03:00:00 2.7 3 Noroeste 12 Norte 0 942.2 0.5 59
2020-03-07 02:00:00 3.3 3 Norte 13 Norte 0 942.2 1 56
2020-03-07 01:00:00 4.8 3 Norte 13 Noroeste 0 941.9 1.4 52
2020-03-07 00:00:00 5.7 5 Norte 21 Noroeste 0 941.7 1.8 50
2020-03-06 23:00:00 5.7 6 Noroeste 13 Noroeste 0 941.2 1.8 44
2020-03-06 22:00:00 6 5 Norte 14 Norte 0 940.5 2 40
2020-03-06 21:00:00 7 6 Norte 15 Norte 0 939.9 2.7 38
2020-03-06 20:00:00 8.3 3 Norte 17 Norte 0 939.4 2.5 36
2020-03-06 19:00:00 9.8 11 Norte 38 Noroeste 0 938.5 2 33
2020-03-06 18:00:00 11.1 13 Norte 48 Noroeste 0 937.2 0.4 31
2020-03-06 17:00:00 11.4 16 Noroeste 44 Noroeste 0 936.9 0.2 34
2020-03-06 16:00:00 11.6 14 Norte 42 Norte 0 936.5 -0.6 34
2020-03-06 15:00:00 11.3 17 Norte 43 Norte 0 936.8 -0.1 35
2020-03-06 14:00:00 10.9 13 Norte 51 Norte 0 936.7 0.1 37
2020-03-06 13:00:00 10.7 17 Norte 56 Noroeste 0 937.1 0.7 41
2020-03-06 12:00:00 10 18 Norte 49 Noroeste 0 936.9 1 47
2020-03-06 11:00:00 8.2 18 Noroeste 44 Noroeste 0.4 936.6 1.5 73
2020-03-06 10:00:00 7.8 16 Noroeste 46 Noroeste 0 936.4 1.6 75
2020-03-06 09:00:00 5.6 9 Noroeste 21 Noroeste 0 935.9 1.5 79
2020-03-06 08:00:00 3.6 2 Noroeste 15 Oeste 0 935.1 0.4 83
2020-03-06 07:00:00 3.1 7 Oeste 14 Oeste 0 934.8 0.1 81
2020-03-06 06:00:00 4.6 2 Norte 19 Norte 0 934.4 -0.8 77
2020-03-06 05:00:00 4.1 7 Noroeste 22 Noroeste 0 934.7 -0.3 78
2020-03-06 04:00:00 4.7 13 Noroeste 24 Noroeste 0 934.7 -0.4 78
2020-03-06 03:00:00 5.1 9 Noroeste 21 Noroeste 0 935.2 0.2 77
2020-03-06 02:00:00 6 9 Noroeste 20 Noroeste 0 935 0.3 76
2020-03-06 01:00:00 7.1 10 Noroeste 22 Noroeste 0 935.1 0.7 70
2020-03-06 00:00:00 8.5 16 Noroeste 39 Noroeste 0 935 1.3 63
2020-03-05 23:00:00 8.8 12 Noroeste 26 Noroeste 0 934.7 1.5 63
2020-03-05 22:00:00 9.6 4 Noroeste 18 Noroeste 0 934.4 1.8 58
2020-03-05 21:00:00 9.5 6 Noroeste 21 Noroeste 0 933.7 1.7 51
2020-03-05 20:00:00 11.6 10 Noroeste 27 Noroeste 0 933.2 1.7 44
2020-03-05 19:00:00 13.1 13 Noroeste 40 Noroeste 0 932.6 1.1 41
2020-03-05 18:00:00 14.4 23 Noroeste 46 Noroeste 0 932 0.7 38
2020-03-05 17:00:00 15.3 22 Noroeste 50 Noroeste 0 931.5 -0.3 37
2020-03-05 16:00:00 15 26 Noroeste 49 Noroeste 0 931.5 -1.2 38
2020-03-05 15:00:00 15.1 9 Noroeste 46 Noroeste 0 931.3 -1.3 53
2020-03-05 14:00:00 13.2 9 Oeste 44 Sudoeste 0 931.8 -1.5 72
2020-03-05 13:00:00 13 16 Oeste 49 Oeste 0 932.7 -0.6 69
2020-03-05 12:00:00 12.6 10 Oeste 45 Oeste 0 932.6 -1.2 69
2020-03-05 11:00:00 11.9 25 Oeste 41 Oeste 0 933.3 -0.1 75
2020-03-05 10:00:00 11.1 22 Sudoeste 32 Oeste 0 933.3 0 86
2020-03-05 09:00:00 10 15 Sudoeste 27 Oeste 0 933.8 -0.4 91
2020-03-05 08:00:00 9.5 20 Oeste 31 Oeste 0 933.4 -1.1 90
2020-03-05 07:00:00 9 13 Oeste 19 Oeste 0 933.3 -2.1 90
2020-03-05 06:00:00 9.5 9 Sudoeste 22 Oeste 0 934.2 -2.2 89
2020-03-05 05:00:00 8.9 4 Sudoeste 14 Sudoeste 0 934.5 -2.3 91
2020-03-05 04:00:00 8.3 5 Oeste 13 Sudoeste 0 935.4 -2 91
2020-03-05 03:00:00 8 7 Oeste 14 Oeste 0 936.4 -1.8 90
2020-03-05 02:00:00 8.5 5 Oeste 14 Oeste 0 936.8 -2 88
2020-03-05 01:00:00 9.5 9 Oeste 17 Oeste 0 937.4 -1.1 85
2020-03-05 00:00:00 9.4 7 Oeste 12 Oeste 0 938.2 -0.2 81
2020-03-04 23:00:00 10.1 0 Calma 6 Sudoeste 0 938.8 0.5 75
2020-03-04 22:00:00 10.9 0 Calma 12 Sudoeste 0 938.5 0.4 71
2020-03-04 21:00:00 11.1 2 Oeste 11 Sudoeste 0 938.4 0.2 68
2020-03-04 20:00:00 12.3 2 Oeste 12 Oeste 0 938.3 -0.2 58
2020-03-04 19:00:00 14.5 5 Noroeste 20 Noroeste 0 938.1 -0.1 49
2020-03-04 18:00:00 15.4 13 Noroeste 29 Noroeste 0 938.2 -0.3 47
2020-03-04 17:00:00 15.9 13 Noroeste 31 Noroeste 0 938.5 -1.2 46
2020-03-04 16:00:00 15.9 11 Noroeste 28 Noroeste 0 938.2 -2.3 47
2020-03-04 15:00:00 15.9 12 Noroeste 27 Noroeste 0 938.5 -2.4 48
2020-03-04 14:00:00 14.9 12 Noroeste 29 Noroeste 0 939.7 -1.3 51
2020-03-04 13:00:00 14.7 12 Noroeste 33 Noroeste 0 940.5 0 59
2020-03-04 12:00:00 13.4 17 Noroeste 32 Noroeste 0 940.9 -0.1 67
2020-03-04 11:00:00 13 15 Noroeste 28 Noroeste 0 941 1.3 74
2020-03-04 10:00:00 12 9 Noroeste 20 Noroeste 0 940.5 1.1 88
2020-03-04 09:00:00 11.3 0 Calma 11 Oeste 0 941 1.5 91
2020-03-04 08:00:00 10.7 5 Oeste 14 Oeste 0 939.7 -0.1 91
2020-03-04 07:00:00 10.6 0 Calma 12 Oeste 0 939.4 0.1 91
2020-03-04 06:00:00 11.4 0 Calma 5 Noroeste 0 939.5 -0.2 88
2020-03-04 05:00:00 11.4 0 Calma 9 Oeste 0 939.8 0.1 88
2020-03-04 04:00:00 11.4 3 Oeste 17 Noroeste 0 939.3 -0.2 88
2020-03-04 03:00:00 11.4 2 Noroeste 14 Noroeste 0 939.7 0.3 88
2020-03-04 02:00:00 11.8 0 Calma 13 Oeste 0 939.7 0.8 87
2020-03-04 01:00:00 12 4 Oeste 12 Oeste 0 939.5 0.9 87
2020-03-04 00:00:00 12.1 2 Noroeste 18 Sudoeste 0 939.4 1.4 86
2020-03-03 23:00:00 12.5 5 Oeste 22 Oeste 0 938.9 1.5 84
2020-03-03 22:00:00 12.3 4 Oeste 20 Oeste 0 938.6 1.2 83
2020-03-03 21:00:00 12.2 3 Noroeste 29 Oeste 0 938 1.7 81
2020-03-03 20:00:00 12.2 10 Oeste 27 Oeste 0 937.4 1.4 77
2020-03-03 19:00:00 12.9 6 Oeste 37 Oeste 0 937.4 1.8 72
2020-03-03 18:00:00 13.3 14 Oeste 37 Oeste 0 936.3 0 68
2020-03-03 17:00:00 13.5 10 Oeste 36 Oeste 0 936 -0.5 64
2020-03-03 16:00:00 13.2 4 Oeste 34 Noroeste 0 935.6 -0.8 62
2020-03-03 15:00:00 13 7 Noroeste 36 Noroeste 0 936.3 -0.7 59
2020-03-03 14:00:00 13.6 6 Noroeste 41 Norte 0 936.5 -0.7 55
2020-03-03 13:00:00 12.4 7 Norte 36 Oeste 0 936.4 -1.1 59
2020-03-03 12:00:00 11 7 Oeste 37 Sudoeste 0 937 -0.3 62
2020-03-03 11:00:00 9.1 10 Oeste 31 Oeste 0 937.2 0.3 70
2020-03-03 10:00:00 6.7 15 Oeste 26 Oeste 0 937.5 0.5 85
2020-03-03 09:00:00 5.1 13 Oeste 22 Oeste 0 937.3 0.3 85
2020-03-03 08:00:00 4.6 15 Oeste 22 Sudoeste 0 936.9 -0.5 86
2020-03-03 07:00:00 4.6 12 Oeste 20 Oeste 0 937 -0.6 84
2020-03-03 06:00:00 3.8 8 Sudoeste 14 Oeste 0 937 -0.8 85
2020-03-03 05:00:00 3.3 6 Oeste 18 Oeste 0 937.4 -1.3 85
2020-03-03 04:00:00 2.6 3 Oeste 21 Sudoeste 0 937.6 -0.9 86
2020-03-03 03:00:00 3.3 2 Noroeste 15 Oeste 0 937.8 -0.2 82
2020-03-03 02:00:00 3.3 4 Oeste 15 Sudoeste 0 938.7 1.3 75
2020-03-03 01:00:00 2.8 0 Calma 14 Oeste 0 938.5 1.6 74
2020-03-03 00:00:00 3.3 0 Calma 14 Sudoeste 0 938 1.7 70
2020-03-02 23:00:00 4.5 6 Noroeste 13 Norte 0 937.4 2 64
2020-03-02 22:00:00 5 6 Norte 16 Noroeste 0 936.9 2.3 61
2020-03-02 21:00:00 5.5 3 Norte 14 Noroeste 0 936.3 3.4 56
2020-03-02 20:00:00 7.3 6 Norte 31 Noroeste 0 935.4 4.2 51
2020-03-02 19:00:00 8.2 11 Norte 35 Norte 0 934.6 4.5 49
2020-03-02 18:00:00 9.2 12 Norte 44 Norte 0.1 932.9 3.4 51
2020-03-02 17:00:00 8.7 9 Norte 43 Norte 0.2 931.2 3.5 64
2020-03-02 16:00:00 9.3 25 Norte 59 Noroeste 0.2 930.1 1.6 56
2020-03-02 15:00:00 9.4 14 Norte 71 Noroeste 0 929.5 1.4 69
2020-03-02 14:00:00 14.1 24 Noroeste 67 Noroeste 0 927.7 0 36
2020-03-02 13:00:00 14.3 23 Noroeste 63 Noroeste 0 928.5 2 38
2020-03-02 12:00:00 13.2 28 Noroeste 69 Noroeste 0 928.1 2.5 43
2020-03-02 11:00:00 12.4 38 Noroeste 71 Noroeste 0 927.7 3 47
2020-03-02 10:00:00 12.4 25 Noroeste 63 Noroeste 0.1 926.5 2.5 55
2020-03-02 09:00:00 11.8 24 Noroeste 60 Noroeste 0 925.6 1.9 67
2020-03-02 08:00:00 11.3 6 Oeste 53 Sudoeste 0 924.7 -0.5 86
2020-03-02 07:00:00 11.1 23 Oeste 96 Sudoeste 0 924 -2.3 81
2020-03-02 06:00:00 10.6 44 Oeste 60 Oeste 0 923.7 -3.3 91
2020-03-02 05:00:00 10.7 32 Sudoeste 43 Sudoeste 0 925.2 -2.5 91
2020-03-02 04:00:00 11.2 17 Oeste 50 Sudoeste 0 926.3 -2.5 88
2020-03-02 03:00:00 11.7 34 Sudoeste 53 Oeste 0 927 -2.8 85
2020-03-02 02:00:00 11.7 35 Sudoeste 47 Sudoeste 0 927.7 -2.9 91
2020-03-02 01:00:00 11.2 27 Sudoeste 48 Sudoeste 0 928.8 -2.8 91
2020-03-02 00:00:00 11.5 31 Sudoeste 49 Sudoeste 0 929.8 -2.2 82
2020-03-01 23:00:00 11.3 27 Sudoeste 48 Sudoeste 0 930.6 -2 83
2020-03-01 22:00:00 11.2 27 Sudoeste 40 Oeste 0 931.6 -1 82
2020-03-01 21:00:00 11.2 26 Sudoeste 42 Sudoeste 0 932 -0.8 82
2020-03-01 20:00:00 11.7 22 Oeste 41 Sudoeste 0 932.6 0.1 86
2020-03-01 19:00:00 13 21 Sudoeste 41 Sudoeste 0 932.6 -0.3 64
2020-03-01 18:00:00 13.6 18 Oeste 51 Sudoeste 0 932.8 -1.2 64
2020-03-01 17:00:00 14.3 20 Oeste 42 Sudoeste 0 932.5 -2.3 57
2020-03-01 16:00:00 14.3 24 Sudoeste 45 Sudoeste 0 932.9 -2.8 62
2020-03-01 15:00:00 12.6 21 Oeste 40 Sudoeste 0 934 -1.9 67
2020-03-01 14:00:00 12.3 10 Oeste 35 Oeste 0 934.8 -1.1 67
2020-03-01 13:00:00 11.7 9 Oeste 40 Sudoeste 0 935.7 0 70
2020-03-01 12:00:00 11.3 6 Oeste 39 Sudoeste 0 935.9 0.8 74
2020-03-01 11:00:00 9.9 7 Oeste 33 Noroeste 0 935.9 1.3 86
2020-03-01 10:00:00 10.1 19 Oeste 33 Oeste 0 935.7 1.3 82
2020-03-01 09:00:00 9.3 14 Oeste 26 Oeste 0 935.1 1.3 83
2020-03-01 08:00:00 8.7 4 Oeste 17 Oeste 0.1 934.6 0.5 84
2020-03-01 07:00:00 8.3 3 Oeste 24 Oeste 0 934.4 0.3 84
2020-03-01 06:00:00 8.4 11 Oeste 25 Oeste 0 933.8 -0.1 84
2020-03-01 05:00:00 8.4 3 Oeste 13 Oeste 0 934.1 0 84
2020-03-01 04:00:00 8.8 0 Calma 17 Noroeste 0 934.1 -0.1 79
2020-03-01 03:00:00 8.5 6 Noroeste 13 Noroeste 0 933.9 -0.5 84
2020-03-01 02:00:00 8.1 0 Calma 8 Noroeste 0 934.1 -0.8 86
2020-03-01 01:00:00 9.5 2 Oeste 13 Oeste 0 934.2 0 85
2020-03-01 00:00:00 10.3 3 Oeste 20 Oeste 0 934.4 0.4 83
2020-02-29 23:00:00 10.9 4 Noroeste 28 Oeste 0 934.9 1.6 87
2020-02-29 22:00:00 11.5 19 Oeste 33 Sudoeste 0 934.2 0.4 87
2020-02-29 21:00:00 12.5 3 Noroeste 33 Noroeste 0 934 0.6 79
2020-02-29 20:00:00 12.1 3 Noroeste 28 Oeste 0 933.3 0.4 79
2020-02-29 19:00:00 12.4 6 Oeste 30 Sudoeste 0 933.8 0.7 76
2020-02-29 18:00:00 13.4 3 Noroeste 34 Sudoeste 0 933.4 0 65
2020-02-29 17:00:00 14.4 5 Oeste 45 Noroeste 0 932.9 -1.1 60
2020-02-29 16:00:00 13.3 8 Oeste 42 Sudoeste 0 933.1 -1.4 63
2020-02-29 15:00:00 13.3 13 Oeste 36 Oeste 0 933.4 -1.6 60
2020-02-29 14:00:00 12.5 14 Oeste 42 Oeste 0 934 -0.6 59
2020-02-29 13:00:00 12.7 15 Oeste 45 Sudoeste 0 934.5 -0.5 59
2020-02-29 12:00:00 12.4 7 Oeste 36 Sudoeste 0 935 0 60
2020-02-29 11:00:00 12 12 Oeste 40 Oeste 0 934.6 0.5 59
2020-02-29 10:00:00 10 19 Oeste 37 Sudoeste 0 935 0.3 65
2020-02-29 09:00:00 7.1 13 Oeste 21 Oeste 0 935 0.9 78
2020-02-29 08:00:00 6 14 Sudoeste 20 Oeste 0 934.1 -0.5 78
2020-02-29 07:00:00 6.7 4 Sudoeste 13 Oeste 0 934.7 0.6 74
2020-02-29 06:00:00 7.6 6 Sudoeste 24 Sudoeste 0 934.1 -0.7 68
2020-02-29 05:00:00 8.4 8 Oeste 18 Oeste 0 934.6 -0.7 64
2020-02-29 04:00:00 8.5 7 Sudoeste 16 Sudoeste 0 934.1 -1.9 57
2020-02-29 03:00:00 9.3 6 Sudoeste 11 Sudoeste 0 934.8 -1.3 52
2020-02-29 02:00:00 9.6 4 Sur 9 Sur 0 935.3 -1 48
2020-02-29 01:00:00 9.5 5 Sudoeste 10 Sur 0 936 0.1 49
2020-02-29 00:00:00 10.5 3 Sur 10 Sur 0 936.1 0 47
2020-02-28 23:00:00 11.4 3 Sur 8 Sur 0 936.3 0.1 45
2020-02-28 22:00:00 11.8 0 Calma 4 Sudoeste 0 935.9 -0.7 45
2020-02-28 21:00:00 13.5 2 Sudoeste 9 Sudoeste 0 936.1 -0.4 40
2020-02-28 20:00:00 14 4 Sudoeste 8 Oeste 0 936.2 -0.4 37
2020-02-28 19:00:00 16.1 5 Sudoeste 20 Oeste 0 936.6 -0.7 32
2020-02-28 18:00:00 18 11 Sudoeste 24 Oeste 0 936.5 -2 27
2020-02-28 17:00:00 19.5 8 Sudoeste 23 Sudoeste 0 936.6 -2.7 25
2020-02-28 16:00:00 19.7 3 Sur 12 Oeste 0 937.3 -2.8 25
2020-02-28 15:00:00 19.1 5 Sudoeste 14 Sudoeste 0 938.5 -2.2 28
2020-02-28 14:00:00 18.5 5 Sudoeste 15 Sudoeste 0 939.3 -2.1 31
2020-02-28 13:00:00 17.5 3 Sudoeste 11 Sudoeste 0 940.1 -1.9 34
2020-02-28 12:00:00 14.7 3 Sudeste 9 Sudeste 0 940.7 -1 44
2020-02-28 11:00:00 11.7 2 Sur 10 Sudoeste 0 941.4 0.2 57
2020-02-28 10:00:00 8.7 3 Sur 8 Sur 0 942 0.6 70
2020-02-28 09:00:00 4.9 3 Sur 9 Sur 0 941.7 0.3 81
2020-02-28 08:00:00 2.6 0 Calma 9 Sudoeste 0 941.2 -0.1 82
2020-02-28 07:00:00 3 0 Calma 7 Sudoeste 0 941.4 -0.1 78
2020-02-28 06:00:00 4.9 0 Calma 10 Sudoeste 0 941.4 -0.9 74
2020-02-28 05:00:00 5 0 Calma 10 Sur 0 941.3 -0.8 72
2020-02-28 04:00:00 5.4 0 Calma 9 Sudoeste 0 941.5 -1.1 70
2020-02-28 03:00:00 7.2 0 Calma 11 Sur 0 942.3 0.1 66
2020-02-28 02:00:00 7.5 0 Calma 10 Nordeste 0 942.1 0 62
2020-02-28 01:00:00 8.8 0 Calma 11 Noroeste 0 942.6 0.5 56
2020-02-28 00:00:00 9.1 2 Oeste 15 Noroeste 0 942.2 0.8 52